Time;durP1;ratioP1;P1;durP2;ratioP2;P2;SDS_P1;SDS_P2;PMS_P1;PMS_P2;Temp;Humidity;BMP_temperature;BMP_pressure;BME280_temperature;BME280_humidity;BME280_pressure;Samples;Min_cycle;Max_cycle;Signal;HPM_P1;HPM_P2
2024/03/05 00:01:39;;;;;;;;;;;;;;;;;;2207374;66;1943;-17
2024/03/05 00:04:10;;;;;;;;;;;;;;;;;;2206724;59;1315;-17
2024/03/05 00:06:40;;;;;;;;;;;;;;;;;;2209284;66;1604;-17
2024/03/05 00:09:10;;;;;;;;;;;;;;;;;;2203948;59;1487;-17
2024/03/05 00:11:41;;;;;;;;;;;;;;;;;;2209621;66;1178;-17
2024/03/05 00:14:11;;;;;;;;;;;;;;;;;;2210084;59;1352;-17
2024/03/05 00:16:41;;;;;;;;;;;;;;;;;;2209399;66;1170;-17
2024/03/05 00:19:12;;;;;;;;;;;;;;;;;;2206603;66;2295;-17
2024/03/05 00:21:42;;;;;;;;;;;;;;;;;;2203218;59;1984;-17
2024/03/05 00:24:13;;;;;;;;;;;;;;;;;;2207083;67;1740;-17
2024/03/05 00:26:45;;;;;;;;;;;;;;;;;;2204444;66;1326;-17
2024/03/05 00:29:16;;;;;;;;;;;;;;;;;;2209113;66;1381;-17
2024/03/05 00:31:46;;;;;;;;;;;;;;;;;;2209643;66;1744;-17
2024/03/05 00:34:17;;;;;;;;;;;;;;;;;;2207522;66;1664;-17
2024/03/05 00:36:47;;;;;;;;;;;;;;;;;;2206081;66;1343;-17
2024/03/05 00:39:18;;;;;;;;;;;;;;;;;;2210064;59;1666;-17
2024/03/05 00:41:48;;;;;;;;;;;;;;;;;;2206662;59;1918;-17
2024/03/05 00:44:19;;;;;;;;;;;;;;;;;;2206138;66;1181;-17
2024/03/05 00:46:49;;;;;;;;;;;;;;;;;;2203590;59;1733;-17
2024/03/05 00:49:20;;;;;;;;;;;;;;;;;;2209965;66;1279;-17
2024/03/05 00:51:50;;;;;;;;;;;;;;;;;;2207259;67;1988;-17
2024/03/05 00:54:21;;;;;;;;;;;;;;;;;;2204406;59;1344;-17
2024/03/05 00:56:51;;;;;;;;;;;;;;;;;;2204893;67;1613;-17
2024/03/05 00:59:22;;;;;;;;;;;;;;;;;;2209006;59;1198;-17
2024/03/05 01:01:52;;;;;;;;;;;;;;;;;;2209319;66;1975;-17
2024/03/05 01:04:25;;;;;;;;;;;;;;;;;;2210065;59;1282;-17
2024/03/05 01:06:56;;;;;;;;;;;;;;;;;;2205559;59;1343;-17
2024/03/05 01:09:27;;;;;;;;;;;;;;;;;;2211119;66;1164;-17
2024/03/05 01:11:57;;;;;;;;;;;;;;;;;;2209100;66;1361;-17
2024/03/05 01:14:28;;;;;;;;;;;;;;;;;;2207791;59;1329;-17
2024/03/05 01:16:58;;;;;;;;;;;;;;;;;;2209122;66;1296;-17
2024/03/05 01:19:29;;;;;;;;;;;;;;;;;;2208238;67;1920;-17
2024/03/05 01:21:59;;;;;;;;;;;;;;;;;;2205952;66;2000;-17
2024/03/05 01:24:30;;;;;;;;;;;;;;;;;;2209994;66;1232;-17
2024/03/05 01:27:02;;;;;;;;;;;;;;;;;;2203412;67;1514;-17
2024/03/05 01:29:33;;;;;;;;;;;;;;;;;;2205843;67;1207;-17
2024/03/05 01:32:04;;;;;;;;;;;;;;;;;;2205931;66;1451;-17
2024/03/05 01:34:37;;;;;;;;;;;;;;;;;;2210147;59;1572;-17
2024/03/05 01:37:07;;;;;;;;;;;;;;;;;;2208987;66;1376;-17
2024/03/05 01:39:37;;;;;;;;;;;;;;;;;;2209599;59;2308;-17
2024/03/05 01:42:08;;;;;;;;;;;;;;;;;;2206321;67;1960;-17
2024/03/05 01:44:38;;;;;;;;;;;;;;;;;;2210687;59;1357;-17
2024/03/05 01:47:09;;;;;;;;;;;;;;;;;;2206058;59;1380;-17
2024/03/05 01:49:40;;;;;;;;;;;;;;;;;;2210246;66;1679;-17
2024/03/05 01:52:10;;;;;;;;;;;;;;;;;;2209832;59;1504;-17
2024/03/05 01:54:42;;;;;;;;;;;;;;;;;;2210358;59;1720;-17
2024/03/05 01:57:12;;;;;;;;;;;;;;;;;;2210241;67;1133;-17
2024/03/05 01:59:43;;;;;;;;;;;;;;;;;;2209674;59;1146;-18
2024/03/05 02:02:13;;;;;;;;;;;;;;;;;;2208964;59;8005;-17
2024/03/05 02:04:44;;;;;;;;;;;;;;;;;;2206996;59;2379;-17
2024/03/05 02:07:17;;;;;;;;;;;;;;;;;;2210009;59;3419;-17
2024/03/05 02:09:47;;;;;;;;;;;;;;;;;;2202630;66;1894;-17
2024/03/05 02:12:18;;;;;;;;;;;;;;;;;;2209920;66;1901;-17
2024/03/05 02:14:49;;;;;;;;;;;;;;;;;;2209487;59;2548;-17
2024/03/05 02:17:19;;;;;;;;;;;;;;;;;;2203956;66;1987;-17
2024/03/05 02:19:50;;;;;;;;;;;;;;;;;;2209633;67;1152;-17
2024/03/05 02:22:21;;;;;;;;;;;;;;;;;;2209916;67;1933;-17
2024/03/05 02:24:51;;;;;;;;;;;;;;;;;;2209670;59;1657;-17
2024/03/05 02:27:21;;;;;;;;;;;;;;;;;;2206664;67;1557;-17
2024/03/05 02:29:52;;;;;;;;;;;;;;;;;;2206283;66;1169;-17
2024/03/05 02:32:22;;;;;;;;;;;;;;;;;;2206961;66;1303;-17
2024/03/05 02:34:54;;;;;;;;;;;;;;;;;;2209522;59;1569;-17
2024/03/05 02:37:34;;;;;;;;;;;;;;;;;;;;;
2024/03/05 02:40:06;;;;;;;;;;;;;;;;;;2209256;59;1765;-17
2024/03/05 02:42:37;;;;;;;;;;;;;;;;;;2209929;66;1948;-17
2024/03/05 02:45:07;;;;;;;;;;;;;;;;;;2209533;59;1583;-17
2024/03/05 02:47:41;;;;;;;;;;;;;;;;;;2210773;66;1260;-17
2024/03/05 02:50:11;;;;;;;;;;;;;;;;;;2209429;66;1219;-17
2024/03/05 02:52:42;;;;;;;;;;;;;;;;;;2210063;66;1522;-17
2024/03/05 02:55:12;;;;;;;;;;;;;;;;;;2209970;59;1710;-17
2024/03/05 02:57:44;;;;;;;;;;;;;;;;;;2207370;66;1730;-17
2024/03/05 03:00:20;;;;;;;;;;;;;;;;;;2206633;59;1433;-17
2024/03/05 03:02:50;;;;;;;;;;;;;;;;;;2209163;59;1975;-17
2024/03/05 03:05:21;;;;;;;;;;;;;;;;;;2208972;66;1422;-17
2024/03/05 03:07:51;;;;;;;;;;;;;;;;;;2209361;59;1490;-17
2024/03/05 03:10:22;;;;;;;;;;;;;;;;;;2206888;66;1880;-17
2024/03/05 03:12:53;;;;;;;;;;;;;;;;;;2209939;66;1193;-17
2024/03/05 03:15:24;;;;;;;;;;;;;;;;;;2209674;59;1420;-17
2024/03/05 03:17:54;;;;;;;;;;;;;;;;;;2209697;66;1570;-17
2024/03/05 03:20:25;;;;;;;;;;;;;;;;;;2206978;67;1361;-17
2024/03/05 03:22:55;;;;;;;;;;;;;;;;;;2210367;66;1993;-17
2024/03/05 03:25:25;;;;;;;;;;;;;;;;;;2206522;66;1751;-17
2024/03/05 03:27:58;;;;;;;;;;;;;;;;;;2209018;59;1667;-17
2024/03/05 03:30:29;;;;;;;;;;;;;;;;;;2206340;67;1718;-17
2024/03/05 03:33:00;;;;;;;;;;;;;;;;;;2209543;66;1610;-17
2024/03/05 03:35:30;;;;;;;;;;;;;;;;;;2207174;59;1766;-17
2024/03/05 03:38:01;;;;;;;;;;;;;;;;;;2206316;59;1284;-17
2024/03/05 03:40:33;;;;;;;;;;;;;;;;;;2210569;59;1695;-17
2024/03/05 03:43:03;;;;;;;;;;;;;;;;;;2206043;66;1986;-17
2024/03/05 03:45:34;;;;;;;;;;;;;;;;;;2211204;59;1475;-17
2024/03/05 03:48:05;;;;;;;;;;;;;;;;;;2206761;66;1615;-17
2024/03/05 03:50:37;;;;;;;;;;;;;;;;;;2210869;66;1299;-17
2024/03/05 03:53:07;;;;;;;;;;;;;;;;;;2209898;66;1505;-17
2024/03/05 03:55:38;;;;;;;;;;;;;;;;;;2207412;59;1307;-17
2024/03/05 03:58:08;;;;;;;;;;;;;;;;;;2208898;66;1596;-17
2024/03/05 04:00:38;;;;;;;;;;;;;;;;;;2207379;59;1505;-17
2024/03/05 04:03:09;;;;;;;;;;;;;;;;;;2206516;59;2370;-17
2024/03/05 04:05:39;;;;;;;;;;;;;;;;;;2210076;66;1512;-17
2024/03/05 04:08:10;;;;;;;;;;;;;;;;;;2206071;59;1607;-17
2024/03/05 04:10:40;;;;;;;;;;;;;;;;;;2210394;66;1393;-17
2024/03/05 04:13:11;;;;;;;;;;;;;;;;;;2209578;66;1730;-17
2024/03/05 04:15:41;;;;;;;;;;;;;;;;;;2209217;59;1495;-18
2024/03/05 04:18:12;;;;;;;;;;;;;;;;;;2206618;67;1417;-19
2024/03/05 04:20:42;;;;;;;;;;;;;;;;;;2207974;67;1490;-17
2024/03/05 04:23:12;;;;;;;;;;;;;;;;;;2208956;66;1894;-17
2024/03/05 04:25:43;;;;;;;;;;;;;;;;;;2209921;66;1211;-17
2024/03/05 04:28:14;;;;;;;;;;;;;;;;;;2205739;66;1491;-17
2024/03/05 04:30:48;;;;;;;;;;;;;;;;;;2209870;66;1235;-17
2024/03/05 04:33:22;;;;;;;;;;;;;;;;;;2207305;67;1887;-17
2024/03/05 04:35:52;;;;;;;;;;;;;;;;;;2209172;66;1385;-17
2024/03/05 04:38:23;;;;;;;;;;;;;;;;;;2209857;59;2061;-17
2024/03/05 04:40:53;;;;;;;;;;;;;;;;;;2205935;59;1663;-17
2024/03/05 04:43:23;;;;;;;;;;;;;;;;;;2209582;66;1955;-17
2024/03/05 04:45:54;;;;;;;;;;;;;;;;;;2209555;59;1286;-17
2024/03/05 04:48:24;;;;;;;;;;;;;;;;;;2210450;66;1164;-17
2024/03/05 04:50:55;;;;;;;;;;;;;;;;;;2209917;66;1669;-17
2024/03/05 04:53:26;;;;;;;;;;;;;;;;;;2210072;66;1237;-18
2024/03/05 04:55:56;;;;;;;;;;;;;;;;;;2206344;66;1413;-17
2024/03/05 04:58:26;;;;;;;;;;;;;;;;;;2209918;67;1260;-17
2024/03/05 05:00:57;;;;;;;;;;;;;;;;;;2209574;66;1151;-17
2024/03/05 05:03:27;;;;;;;;;;;;;;;;;;2206330;59;1991;-17
2024/03/05 05:05:58;;;;;;;;;;;;;;;;;;2209371;66;1706;-17
2024/03/05 05:08:28;;;;;;;;;;;;;;;;;;2209474;59;1305;-17
2024/03/05 05:10:58;;;;;;;;;;;;;;;;;;2206643;66;1169;-17
2024/03/05 05:13:29;;;;;;;;;;;;;;;;;;2209722;59;1317;-17
2024/03/05 05:15:59;;;;;;;;;;;;;;;;;;2209578;66;1208;-17
2024/03/05 05:18:29;;;;;;;;;;;;;;;;;;2209740;66;1674;-17
2024/03/05 05:21:00;;;;;;;;;;;;;;;;;;2206352;66;1244;-17
2024/03/05 05:23:30;;;;;;;;;;;;;;;;;;2210771;66;1970;-17
2024/03/05 05:26:02;;;;;;;;;;;;;;;;;;2209257;66;1601;-17
2024/03/05 05:28:32;;;;;;;;;;;;;;;;;;2205552;67;1229;-17
2024/03/05 05:31:03;;;;;;;;;;;;;;;;;;2206524;67;1254;-18
2024/03/05 05:33:37;;;;;;;;;;;;;;;;;;2210350;59;1868;-17
2024/03/05 05:36:07;;;;;;;;;;;;;;;;;;2209307;66;1300;-17
2024/03/05 05:38:37;;;;;;;;;;;;;;;;;;2209324;66;1532;-17
2024/03/05 05:41:07;;;;;;;;;;;;;;;;;;2209635;59;2054;-17
2024/03/05 05:43:38;;;;;;;;;;;;;;;;;;2206486;67;1921;-18
2024/03/05 05:46:14;;;;;;;;;;;;;;;;;;2209638;59;1571;-17
2024/03/05 05:48:49;;;;;;;;;;;;;;;;;;2209288;66;1494;-17
2024/03/05 05:51:22;;;;;;;;;;;;;;;;;;2209223;67;1343;-17
2024/03/05 05:53:53;;;;;;;;;;;;;;;;;;2209879;66;1229;-17
2024/03/05 05:56:23;;;;;;;;;;;;;;;;;;2205279;59;1739;-17
2024/03/05 06:01:33;;;;;;;;;;;;;;;;;;2199495;59;1732;-25
2024/03/05 06:04:07;;;;;;;;;;;;;;;;;;2199411;59;2000;-25
2024/03/05 06:06:37;;;;;;;;;;;;;;;;;;2201953;59;1780;-25
2024/03/05 06:09:10;;;;;;;;;;;;;;;;;;2201891;59;1914;-25
2024/03/05 06:11:41;;;;;;;;;;;;;;;;;;2198938;67;1392;-25
2024/03/05 06:14:11;;;;;;;;;;;;;;;;;;2201369;59;2544;-25
2024/03/05 06:16:41;;;;;;;;;;;;;;;;;;2203514;59;1789;-25
2024/03/05 06:19:11;;;;;;;;;;;;;;;;;;2202222;59;1443;-25
2024/03/05 06:21:42;;;;;;;;;;;;;;;;;;2203081;59;1946;-25
2024/03/05 06:24:13;;;;;;;;;;;;;;;;;;2201098;59;1467;-25
2024/03/05 06:26:43;;;;;;;;;;;;;;;;;;2202590;67;1115;-25
2024/03/05 06:29:14;;;;;;;;;;;;;;;;;;2201826;67;2509;-25
2024/03/05 06:31:44;;;;;;;;;;;;;;;;;;2203301;67;1894;-25
2024/03/05 06:34:15;;;;;;;;;;;;;;;;;;2202390;59;1891;-25
2024/03/05 06:36:45;;;;;;;;;;;;;;;;;;2204848;67;1687;-25
2024/03/05 06:39:19;;;;;;;;;;;;;;;;;;2206769;59;1977;-25
2024/03/05 06:41:52;;;;;;;;;;;;;;;;;;2204892;67;2123;-25
2024/03/05 06:44:25;;;;;;;;;;;;;;;;;;2206451;67;1737;-25
2024/03/05 06:46:56;;;;;;;;;;;;;;;;;;2205588;59;1775;-25
2024/03/05 06:49:37;;;;;;;;;;;;;;;;;;2206770;59;1876;-25
2024/03/05 06:57:46;;;;;;;;;;;;;;;;;;2205108;59;2122;-25
2024/03/05 07:00:17;;;;;;;;;;;;;;;;;;2204334;59;1777;-25
2024/03/05 07:02:47;;;;;;;;;;;;;;;;;;2202604;59;1924;-25
2024/03/05 07:05:17;;;;;;;;;;;;;;;;;;2203600;59;1891;-25
2024/03/05 07:07:48;;;;;;;;;;;;;;;;;;2201875;59;2194;-25
2024/03/05 07:10:21;;;;;;;;;;;;;;;;;;2201365;59;2370;-25
2024/03/05 07:12:51;;;;;;;;;;;;;;;;;;2196407;59;2367;-25
2024/03/05 07:15:21;;;;;;;;;;;;;;;;;;2198336;59;3263;-25
2024/03/05 07:17:52;;;;;;;;;;;;;;;;;;2197953;59;2305;-25
2024/03/05 07:20:27;;;;;;;;;;;;;;;;;;2198586;59;2187;-25
2024/03/05 07:22:57;;;;;;;;;;;;;;;;;;2200316;59;2256;-25
2024/03/05 07:25:28;;;;;;;;;;;;;;;;;;2201885;59;2116;-25
2024/03/05 07:27:58;;;;;;;;;;;;;;;;;;2201938;59;2195;-25
2024/03/05 07:30:29;;;;;;;;;;;;;;;;;;2201392;59;2053;-25
2024/03/05 07:32:59;;;;;;;;;;;;;;;;;;2202906;67;1923;-25
2024/03/05 07:35:29;;;;;;;;;;;;;;;;;;2198901;59;2082;-25
2024/03/05 07:38:00;;;;;;;;;;;;;;;;;;2202865;59;1396;-25
2024/03/05 07:40:30;;;;;;;;;;;;;;;;;;2201833;59;1813;-25
2024/03/05 07:43:04;;;;;;;;;;;;;;;;;;2203120;59;1991;-25
2024/03/05 07:45:34;;;;;;;;;;;;;;;;;;2199419;59;1496;-25
2024/03/05 07:48:05;;;;;;;;;;;;;;;;;;2200010;59;1483;-25
2024/03/05 07:50:35;;;;;;;;;;;;;;;;;;2200438;67;2046;-25
2024/03/05 07:53:05;;;;;;;;;;;;;;;;;;2202248;59;2414;-25
2024/03/05 07:55:41;;;;;;;;;;;;;;;;;;2203264;59;1509;-25
2024/03/05 07:58:11;;;;;;;;;;;;;;;;;;2202568;67;1494;-25
2024/03/05 08:00:41;;;;;;;;;;;;;;;;;;2202687;59;1365;-25
2024/03/05 08:03:11;;;;;;;;;;;;;;;;;;2199089;59;2178;-25
2024/03/05 08:05:41;;;;;;;;;;;;;;;;;;2199437;59;2351;-25
2024/03/05 08:08:12;;;;;;;;;;;;;;;;;;2202226;59;2265;-25
2024/03/05 08:10:43;;;;;;;;;;;;;;;;;;2201434;59;2283;-25
2024/03/05 08:13:13;;;;;;;;;;;;;;;;;;2202555;59;2354;-25
2024/03/05 08:15:43;;;;;;;;;;;;;;;;;;2202805;67;1179;-25
2024/03/05 08:18:14;;;;;;;;;;;;;;;;;;2201957;59;1487;-25
2024/03/05 08:20:44;;;;;;;;;;;;;;;;;;2202756;67;1197;-25
2024/03/05 08:23:14;;;;;;;;;;;;;;;;;;2199109;59;2225;-25
2024/03/05 08:25:47;;;;;;;;;;;;;;;;;;2202266;59;1476;-26
2024/03/05 08:28:18;;;;;;;;;;;;;;;;;;2198222;59;1678;-25
2024/03/05 08:30:48;;;;;;;;;;;;;;;;;;2201847;59;2256;-25
2024/03/05 08:33:20;;;;;;;;;;;;;;;;;;2201845;59;1751;-25
2024/03/05 08:35:51;;;;;;;;;;;;;;;;;;2200063;67;1724;-25
2024/03/05 08:38:21;;;;;;;;;;;;;;;;;;2197482;59;1555;-25
2024/03/05 08:40:51;;;;;;;;;;;;;;;;;;2203109;59;1743;-25
2024/03/05 08:43:21;;;;;;;;;;;;;;;;;;2201208;67;2009;-25
2024/03/05 08:45:52;;;;;;;;;;;;;;;;;;2203048;59;2762;-25
2024/03/05 08:48:22;;;;;;;;;;;;;;;;;;2201639;67;1757;-25
2024/03/05 08:50:52;;;;;;;;;;;;;;;;;;2199771;67;2354;-25
2024/03/05 08:53:23;;;;;;;;;;;;;;;;;;2200355;59;2163;-25
2024/03/05 08:55:53;;;;;;;;;;;;;;;;;;2202304;59;1732;-25
2024/03/05 08:58:23;;;;;;;;;;;;;;;;;;2201695;59;1569;-25
2024/03/05 09:00:53;;;;;;;;;;;;;;;;;;2202918;59;1962;-25
2024/03/05 09:03:24;;;;;;;;;;;;;;;;;;2201917;59;2002;-25
2024/03/05 09:05:54;;;;;;;;;;;;;;;;;;2199195;67;1685;-25
2024/03/05 09:08:24;;;;;;;;;;;;;;;;;;2197377;67;1663;-25
2024/03/05 09:10:54;;;;;;;;;;;;;;;;;;2201670;67;1666;-25
2024/03/05 09:13:25;;;;;;;;;;;;;;;;;;2200547;59;1565;-25
2024/03/05 09:15:55;;;;;;;;;;;;;;;;;;2202824;67;1615;-25
2024/03/05 09:18:25;;;;;;;;;;;;;;;;;;2196888;59;2361;-25
2024/03/05 09:20:55;;;;;;;;;;;;;;;;;;2199619;67;1458;-25
2024/03/05 09:23:25;;;;;;;;;;;;;;;;;;2201093;59;1938;-25
2024/03/05 09:25:56;;;;;;;;;;;;;;;;;;2199375;59;1933;-25
2024/03/05 09:28:26;;;;;;;;;;;;;;;;;;2196333;67;1760;-25
2024/03/05 09:30:56;;;;;;;;;;;;;;;;;;2201341;67;1737;-25
2024/03/05 09:33:26;;;;;;;;;;;;;;;;;;2199286;59;1685;-25
2024/03/05 09:35:58;;;;;;;;;;;;;;;;;;2201293;67;1850;-25
2024/03/05 09:38:29;;;;;;;;;;;;;;;;;;2200573;59;1661;-25
2024/03/05 09:41:00;;;;;;;;;;;;;;;;;;2200706;59;3334;-25
2024/03/05 09:43:30;;;;;;;;;;;;;;;;;;2205420;60;1905;-25
2024/03/05 09:46:04;;;;;;;;;;;;;;;;;;2198924;59;2207;-25
2024/03/05 09:48:37;;;;;;;;;;;;;;;;;;2201409;67;2914;-25
2024/03/05 09:51:12;;;;;;;;;;;;;;;;;;2201561;67;1611;-25
2024/03/05 09:53:42;;;;;;;;;;;;;;;;;;2199648;59;2168;-25
2024/03/05 09:56:15;;;;;;;;;;;;;;;;;;2197837;59;2225;-25
2024/03/05 09:58:46;;;;;;;;;;;;;;;;;;2194343;67;1817;-25
2024/03/05 10:01:16;;;;;;;;;;;;;;;;;;2196954;59;2811;-32
2024/03/05 10:03:47;;;;;;;;;;;;;;;;;;2199703;59;2274;-25
2024/03/05 10:06:18;;;;;;;;;;;;;;;;;;2200877;67;1617;-25
2024/03/05 10:08:48;;;;;;;;;;;;;;;;;;2195422;59;1500;-25
2024/03/05 10:11:18;;;;;;;;;;;;;;;;;;2201922;67;1459;-25
2024/03/05 10:13:49;;;;;;;;;;;;;;;;;;2201900;59;1652;-25
2024/03/05 10:16:20;;;;;;;;;;;;;;;;;;2201345;59;2097;-25
2024/03/05 10:18:50;;;;;;;;;;;;;;;;;;2201648;67;1347;-25
2024/03/05 10:21:22;;;;;;;;;;;;;;;;;;2201000;67;1542;-25
2024/03/05 10:23:59;;;;;;;;;;;;;;;;;;2200575;59;2162;-25
2024/03/05 10:26:30;;;;;;;;;;;;;;;;;;2198163;67;1999;-25
2024/03/05 10:29:07;;;;;;;;;;;;;;;;;;2201040;67;1749;-25
2024/03/05 10:31:39;;;;;;;;;;;;;;;;;;2196815;59;1820;-25
2024/03/05 10:34:09;;;;;;;;;;;;;;;;;;2197778;59;1994;-25
2024/03/05 10:36:43;;;;;;;;;;;;;;;;;;2199920;67;1642;-25
2024/03/05 10:39:13;;;;;;;;;;;;;;;;;;2199220;59;2133;-25
2024/03/05 10:41:48;;;;;;;;;;;;;;;;;;2198887;67;2373;-25
2024/03/05 10:44:19;;;;;;;;;;;;;;;;;;2197558;59;2646;-25
2024/03/05 10:46:52;;;;;;;;;;;;;;;;;;2200327;59;2275;-25
2024/03/05 10:49:23;;;;;;;;;;;;;;;;;;2199952;59;2624;-25
2024/03/05 10:51:53;;;;;;;;;;;;;;;;;;2202454;59;3413;-25
2024/03/05 10:54:25;;;;;;;;;;;;;;;;;;2201660;59;1554;-26
2024/03/05 10:56:56;;;;;;;;;;;;;;;;;;2199939;59;2643;-25
2024/03/05 10:59:40;;;;;;;;;;;;;;;;;;2197512;59;2691;-25
2024/03/05 11:02:11;;;;;;;;;;;;;;;;;;2202196;67;1941;-25
2024/03/05 11:04:44;;;;;;;;;;;;;;;;;;2200619;59;1686;-25
2024/03/05 11:07:15;;;;;;;;;;;;;;;;;;2199354;59;2464;-25
2024/03/05 11:09:45;;;;;;;;;;;;;;;;;;2200868;59;2235;-25
2024/03/05 11:12:19;;;;;;;;;;;;;;;;;;2197052;59;2006;-25
2024/03/05 11:14:49;;;;;;;;;;;;;;;;;;2202810;59;1713;-25
2024/03/05 11:17:19;;;;;;;;;;;;;;;;;;2201791;67;1599;-25
2024/03/05 11:19:50;;;;;;;;;;;;;;;;;;2202700;67;1414;-25
2024/03/05 11:22:24;;;;;;;;;;;;;;;;;;2201543;59;2264;-25
2024/03/05 11:24:56;;;;;;;;;;;;;;;;;;2199678;67;1598;-25
2024/03/05 11:27:28;;;;;;;;;;;;;;;;;;2201740;59;2231;-25
2024/03/05 11:29:59;;;;;;;;;;;;;;;;;;2202446;59;2644;-25
2024/03/05 11:32:33;;;;;;;;;;;;;;;;;;2201475;67;2793;-25
2024/03/05 11:35:13;;;;;;;;;;;;;;;;;;2202373;59;2325;-25
2024/03/05 11:37:50;;;;;;;;;;;;;;;;;;2201510;59;2505;-27
2024/03/05 11:40:29;;;;;;;;;;;;;;;;;;2201705;59;2010;-23
2024/03/05 11:43:00;;;;;;;;;;;;;;;;;;2202026;67;1935;-23
2024/03/05 11:45:49;;;;;;;;;;;;;;;;;;2201695;59;1853;-23
2024/03/05 11:48:20;;;;;;;;;;;;;;;;;;2202970;59;2317;-23
2024/03/05 11:50:54;;;;;;;;;;;;;;;;;;2200549;67;2097;-23
2024/03/05 11:53:24;;;;;;;;;;;;;;;;;;2199514;59;3707;-23
2024/03/05 11:56:03;;;;;;;;;;;;;;;;;;2197707;59;2497;-24
2024/03/05 11:58:37;;;;;;;;;;;;;;;;;;2201005;67;2560;-23
2024/03/05 12:01:08;;;;;;;;;;;;;;;;;;2199649;59;1866;-23
2024/03/05 12:03:38;;;;;;;;;;;;;;;;;;2201040;59;1936;-23
2024/03/05 12:06:10;;;;;;;;;;;;;;;;;;2201123;67;1859;-23
2024/03/05 12:08:40;;;;;;;;;;;;;;;;;;2200475;67;1558;-23
2024/03/05 12:11:11;;;;;;;;;;;;;;;;;;2200255;67;1782;-23
2024/03/05 12:13:45;;;;;;;;;;;;;;;;;;2199050;59;1850;-23
2024/03/05 12:16:15;;;;;;;;;;;;;;;;;;2195360;59;2065;-23
2024/03/05 12:18:46;;;;;;;;;;;;;;;;;;2201419;67;1706;-23
2024/03/05 12:21:16;;;;;;;;;;;;;;;;;;2201726;67;1591;-24
2024/03/05 12:23:48;;;;;;;;;;;;;;;;;;2200708;67;1937;-23
2024/03/05 12:26:19;;;;;;;;;;;;;;;;;;2199091;67;1515;-23
2024/03/05 12:28:50;;;;;;;;;;;;;;;;;;2197364;67;1866;-23
2024/03/05 12:31:21;;;;;;;;;;;;;;;;;;2201421;59;1720;-23
2024/03/05 12:33:51;;;;;;;;;;;;;;;;;;2195489;59;1857;-23
2024/03/05 12:36:22;;;;;;;;;;;;;;;;;;2204186;67;1689;-23
2024/03/05 12:38:52;;;;;;;;;;;;;;;;;;2198486;59;1712;-23
2024/03/05 12:41:24;;;;;;;;;;;;;;;;;;2199852;59;2124;-23
2024/03/05 12:43:55;;;;;;;;;;;;;;;;;;2197506;67;1998;-23
2024/03/05 12:46:25;;;;;;;;;;;;;;;;;;2198092;59;1973;-23
2024/03/05 12:48:56;;;;;;;;;;;;;;;;;;2201904;67;1422;-23
2024/03/05 12:51:27;;;;;;;;;;;;;;;;;;2200910;67;1667;-23
2024/03/05 12:54:01;;;;;;;;;;;;;;;;;;2199181;67;1870;-23
2024/03/05 12:56:45;;;;;;;;;;;;;;;;;;2200929;63;1527;-25
2024/03/05 12:59:19;;;;;;;;;;;;;;;;;;2202175;59;1618;-23
2024/03/05 13:01:49;;;;;;;;;;;;;;;;;;2204766;59;1950;-24
2024/03/05 13:04:20;;;;;;;;;;;;;;;;;;2206422;66;1949;-24
2024/03/05 13:06:50;;;;;;;;;;;;;;;;;;2204916;59;1962;-23
2024/03/05 13:09:21;;;;;;;;;;;;;;;;;;2206693;67;1586;-23
2024/03/05 13:11:51;;;;;;;;;;;;;;;;;;2202810;67;1550;-23
2024/03/05 13:14:22;;;;;;;;;;;;;;;;;;2203625;59;1719;-23
2024/03/05 13:16:52;;;;;;;;;;;;;;;;;;2201527;67;1412;-23
2024/03/05 13:19:22;;;;;;;;;;;;;;;;;;2203201;60;1605;-23
2024/03/05 13:21:53;;;;;;;;;;;;;;;;;;2202704;66;1563;-24
2024/03/05 13:24:23;;;;;;;;;;;;;;;;;;2206160;66;2004;-24
2024/03/05 13:26:53;;;;;;;;;;;;;;;;;;2202555;67;1695;-24
2024/03/05 13:29:23;;;;;;;;;;;;;;;;;;2203931;67;1803;-23
2024/03/05 13:31:54;;;;;;;;;;;;;;;;;;2205502;59;1614;-24
2024/03/05 13:34:25;;;;;;;;;;;;;;;;;;2207395;59;1810;-23
2024/03/05 13:36:56;;;;;;;;;;;;;;;;;;2204428;59;2126;-23
2024/03/05 13:39:26;;;;;;;;;;;;;;;;;;2206546;59;1950;-24
2024/03/05 13:41:56;;;;;;;;;;;;;;;;;;2204540;67;1626;-23
2024/03/05 13:44:27;;;;;;;;;;;;;;;;;;2205677;59;2000;-23
2024/03/05 13:46:57;;;;;;;;;;;;;;;;;;2204716;59;1628;-24
2024/03/05 13:49:27;;;;;;;;;;;;;;;;;;2203936;67;1551;-24
2024/03/05 13:51:58;;;;;;;;;;;;;;;;;;2200420;67;2016;-24
2024/03/05 13:54:29;;;;;;;;;;;;;;;;;;2205893;59;1604;-24
2024/03/05 13:56:59;;;;;;;;;;;;;;;;;;2204687;62;1530;-23
2024/03/05 13:59:31;;;;;;;;;;;;;;;;;;2202488;67;1654;-24
2024/03/05 14:02:02;;;;;;;;;;;;;;;;;;2205864;67;1602;-23
2024/03/05 14:04:32;;;;;;;;;;;;;;;;;;2206012;59;1953;-23
2024/03/05 14:07:03;;;;;;;;;;;;;;;;;;2205420;67;2002;-24
2024/03/05 14:09:33;;;;;;;;;;;;;;;;;;2205800;67;1997;-24
2024/03/05 14:12:03;;;;;;;;;;;;;;;;;;2202072;67;1747;-24
2024/03/05 14:14:34;;;;;;;;;;;;;;;;;;2201750;59;1810;-24
2024/03/05 14:17:04;;;;;;;;;;;;;;;;;;2202915;67;1723;-24
2024/03/05 14:19:34;;;;;;;;;;;;;;;;;;2205177;67;1813;-24
2024/03/05 14:22:05;;;;;;;;;;;;;;;;;;2202277;67;1947;-24
2024/03/05 14:24:35;;;;;;;;;;;;;;;;;;2202033;66;2890;-23
2024/03/05 14:27:05;;;;;;;;;;;;;;;;;;2204291;67;2042;-24
2024/03/05 14:29:35;;;;;;;;;;;;;;;;;;2205922;59;1586;-24
2024/03/05 14:32:07;;;;;;;;;;;;;;;;;;2203961;67;1491;-23
2024/03/05 14:34:39;;;;;;;;;;;;;;;;;;2203114;59;2069;-24
2024/03/05 14:37:09;;;;;;;;;;;;;;;;;;2206655;67;1907;-24
2024/03/05 14:39:41;;;;;;;;;;;;;;;;;;2208183;59;2968;-24
2024/03/05 14:42:11;;;;;;;;;;;;;;;;;;2206568;67;2001;-23
2024/03/05 14:44:41;;;;;;;;;;;;;;;;;;2203805;59;1843;-23
2024/03/05 14:47:12;;;;;;;;;;;;;;;;;;2206655;59;1553;-24
2024/03/05 14:49:42;;;;;;;;;;;;;;;;;;2205362;66;1553;-24
2024/03/05 14:52:12;;;;;;;;;;;;;;;;;;2203985;67;1831;-24
2024/03/05 14:54:42;;;;;;;;;;;;;;;;;;2200889;59;1757;-24
2024/03/05 14:57:13;;;;;;;;;;;;;;;;;;2202016;59;1923;-23
2024/03/05 14:59:43;;;;;;;;;;;;;;;;;;2203686;59;2357;-24
2024/03/05 15:02:13;;;;;;;;;;;;;;;;;;2200649;67;2012;-23
2024/03/05 15:04:43;;;;;;;;;;;;;;;;;;2203821;59;1569;-23
2024/03/05 15:07:14;;;;;;;;;;;;;;;;;;2206121;66;1787;-23
2024/03/05 15:09:44;;;;;;;;;;;;;;;;;;2199997;67;1989;-23
2024/03/05 15:12:14;;;;;;;;;;;;;;;;;;2203234;67;1627;-23
2024/03/05 15:14:46;;;;;;;;;;;;;;;;;;2200318;59;1703;-23
2024/03/05 15:17:16;;;;;;;;;;;;;;;;;;2207954;67;1600;-23
2024/03/05 15:19:49;;;;;;;;;;;;;;;;;;2205807;67;1677;-23
2024/03/05 15:22:19;;;;;;;;;;;;;;;;;;2205738;59;1987;-23
2024/03/05 15:24:49;;;;;;;;;;;;;;;;;;2202382;67;1976;-23
2024/03/05 15:27:20;;;;;;;;;;;;;;;;;;2203472;59;1503;-23
2024/03/05 15:29:50;;;;;;;;;;;;;;;;;;2202829;67;1628;-23
2024/03/05 15:32:21;;;;;;;;;;;;;;;;;;2205196;59;1804;-23
2024/03/05 15:34:51;;;;;;;;;;;;;;;;;;2199616;67;1818;-23
2024/03/05 15:37:22;;;;;;;;;;;;;;;;;;2204831;59;1755;-23
2024/03/05 15:39:52;;;;;;;;;;;;;;;;;;2200808;59;2107;-23
2024/03/05 15:42:22;;;;;;;;;;;;;;;;;;2204189;59;1996;-23
2024/03/05 15:44:52;;;;;;;;;;;;;;;;;;2199310;59;1574;-23
2024/03/05 15:47:24;;;;;;;;;;;;;;;;;;2205906;59;1636;-23
2024/03/05 15:49:56;;;;;;;;;;;;;;;;;;2202031;67;1753;-23
2024/03/05 15:52:26;;;;;;;;;;;;;;;;;;2207423;53;3848;-18
2024/03/05 15:54:56;;;;;;;;;;;;;;;;;;2203155;59;1743;-18
2024/03/05 15:57:41;;;;;;;;;;;;;;;;;;2204934;67;2066;-20
2024/03/05 16:00:12;;;;;;;;;;;;;;;;;;2201557;59;1857;-18
2024/03/05 16:02:43;;;;;;;;;;;;;;;;;;2205236;59;2358;-18
2024/03/05 16:05:15;;;;;;;;;;;;;;;;;;2205667;67;2098;-18
2024/03/05 16:07:45;;;;;;;;;;;;;;;;;;2204954;59;3214;-17
2024/03/05 16:10:16;;;;;;;;;;;;;;;;;;2202911;59;1678;-18
2024/03/05 16:12:46;;;;;;;;;;;;;;;;;;2204871;59;1730;-18
2024/03/05 16:15:17;;;;;;;;;;;;;;;;;;2202902;59;2619;-18
2024/03/05 16:17:47;;;;;;;;;;;;;;;;;;2204839;67;2023;-18
2024/03/05 16:20:19;;;;;;;;;;;;;;;;;;2205996;67;2469;-18
2024/03/05 16:22:52;;;;;;;;;;;;;;;;;;2202485;59;2075;-18
2024/03/05 16:25:27;;;;;;;;;;;;;;;;;;2203584;59;2565;-18
2024/03/05 16:27:57;;;;;;;;;;;;;;;;;;2203160;67;2129;-18
2024/03/05 16:30:30;;;;;;;;;;;;;;;;;;2205819;67;1978;-18
2024/03/05 16:33:00;;;;;;;;;;;;;;;;;;2204913;67;1872;-18
2024/03/05 16:35:34;;;;;;;;;;;;;;;;;;2206468;59;1810;-18
2024/03/05 16:38:05;;;;;;;;;;;;;;;;;;2201051;67;1982;-18
2024/03/05 16:40:35;;;;;;;;;;;;;;;;;;2202950;59;2687;-17
2024/03/05 16:43:09;;;;;;;;;;;;;;;;;;2204463;67;2561;-18
2024/03/05 16:45:40;;;;;;;;;;;;;;;;;;2205099;59;2156;-18
2024/03/05 16:48:10;;;;;;;;;;;;;;;;;;2204138;59;2398;-18
2024/03/05 16:50:40;;;;;;;;;;;;;;;;;;2205341;59;1921;-18
2024/03/05 16:53:11;;;;;;;;;;;;;;;;;;2200864;67;1825;-17
2024/03/05 16:55:41;;;;;;;;;;;;;;;;;;2205697;59;1834;-18
2024/03/05 16:58:12;;;;;;;;;;;;;;;;;;2201579;67;2501;-18
2024/03/05 17:00:54;;;;;;;;;;;;;;;;;;2205915;59;2017;-18
2024/03/05 17:03:28;;;;;;;;;;;;;;;;;;2203467;67;2441;-17
2024/03/05 17:05:59;;;;;;;;;;;;;;;;;;2204539;67;1846;-20
2024/03/05 17:08:30;;;;;;;;;;;;;;;;;;2203030;67;1855;-20
2024/03/05 17:11:02;;;;;;;;;;;;;;;;;;2203368;67;1815;-20
2024/03/05 17:13:36;;;;;;;;;;;;;;;;;;2203293;59;1811;-20
2024/03/05 17:16:11;;;;;;;;;;;;;;;;;;2205344;67;2070;-20
2024/03/05 17:18:41;;;;;;;;;;;;;;;;;;2205874;67;2498;-20
2024/03/05 17:21:12;;;;;;;;;;;;;;;;;;2202393;67;2067;-20
2024/03/05 17:23:46;;;;;;;;;;;;;;;;;;2203358;67;1934;-20
2024/03/05 17:26:18;;;;;;;;;;;;;;;;;;2205131;67;2746;-20
2024/03/05 17:28:51;;;;;;;;;;;;;;;;;;2204756;67;1823;-20
2024/03/05 17:31:21;;;;;;;;;;;;;;;;;;2202506;67;1783;-20
2024/03/05 17:33:52;;;;;;;;;;;;;;;;;;2202126;59;1930;-20
2024/03/05 17:36:22;;;;;;;;;;;;;;;;;;2202780;62;1770;-20
2024/03/05 17:38:53;;;;;;;;;;;;;;;;;;2205476;59;2123;-20